Terminal Aerodrome Forecast
Issued by NWS Milwaukee/Sullivan, WI

Home | Current Version | Previous Version | Text Only | Print | Product List | Glossary On
Versions: 1 2 3 4 5 6 7 8 9 10 11 12 13 14 15 16 17 18 19 20 21 22 23 24 25 26
000
FTUS43 KMKX 281738
TAFMKE
TAF
KMKE 281738Z 2818/2924 18013G21KT P6SM BKN045
     FM290000 19012KT P6SM BKN050
     FM290200 19009KT 5SM SHRA VCTS BKN040CB
     FM290400 20008KT P6SM BKN050
     FM291500 24011G19KT P6SM BKN050
     FM291900 26013G22KT P6SM BKN050=

USA.gov is the U.S. government's official web portal to all federal, state and local government web resources and services.